sensor_id;sensor_type;location;lat;lon;timestamp;pressure;altitude;pressure_sealevel;temperature;humidity
46682;BME280;34101;53.430;-2.224;2023-06-14T00:00:05;101478.17;;;19.94;37.36
46682;BME280;34101;53.430;-2.224;2023-06-14T00:02:33;101475.93;;;19.94;37.74
46682;BME280;34101;53.430;-2.224;2023-06-14T00:05:00;101474.05;;;19.87;37.66
46682;BME280;34101;53.430;-2.224;2023-06-14T00:07:36;101473.04;;;19.87;37.82
46682;BME280;34101;53.430;-2.224;2023-06-14T00:10:04;101471.24;;;19.81;38.09
46682;BME280;34101;53.430;-2.224;2023-06-14T00:12:32;101469.07;;;19.78;38.28
46682;BME280;34101;53.430;-2.224;2023-06-14T00:15:00;101467.84;;;19.77;38.37
46682;BME280;34101;53.430;-2.224;2023-06-14T00:17:33;101464.64;;;19.73;38.26
46682;BME280;34101;53.430;-2.224;2023-06-14T00:20:02;101463.23;;;19.68;37.40
46682;BME280;34101;53.430;-2.224;2023-06-14T00:22:31;101462.25;;;19.68;36.89
46682;BME280;34101;53.430;-2.224;2023-06-14T00:25:04;101461.28;;;19.65;36.39
46682;BME280;34101;53.430;-2.224;2023-06-14T00:27:32;101465.95;;;19.62;35.93
46682;BME280;34101;53.430;-2.224;2023-06-14T00:29:59;101463.87;;;19.65;36.09
46682;BME280;34101;53.430;-2.224;2023-06-14T00:32:27;101464.52;;;19.66;35.33
46682;BME280;34101;53.430;-2.224;2023-06-14T00:34:54;101463.09;;;19.66;35.36
46682;BME280;34101;53.430;-2.224;2023-06-14T00:37:22;101464.22;;;19.62;35.63
46682;BME280;34101;53.430;-2.224;2023-06-14T00:39:50;101468.21;;;19.57;35.67
46682;BME280;34101;53.430;-2.224;2023-06-14T00:42:25;101467.97;;;19.53;35.82
46682;BME280;34101;53.430;-2.224;2023-06-14T00:44:54;101466.01;;;19.41;35.86
46682;BME280;34101;53.430;-2.224;2023-06-14T00:47:22;101468.20;;;19.46;35.74
46682;BME280;34101;53.430;-2.224;2023-06-14T00:49:50;101464.67;;;19.41;36.08
46682;BME280;34101;53.430;-2.224;2023-06-14T00:52:18;101463.07;;;19.36;36.03
46682;BME280;34101;53.430;-2.224;2023-06-14T00:54:47;101459.38;;;19.30;36.41
46682;BME280;34101;53.430;-2.224;2023-06-14T00:57:14;101462.84;;;19.25;36.72
46682;BME280;34101;53.430;-2.224;2023-06-14T00:59:44;101462.03;;;19.17;37.18
46682;BME280;34101;53.430;-2.224;2023-06-14T01:02:13;101461.09;;;19.17;37.44
46682;BME280;34101;53.430;-2.224;2023-06-14T01:04:41;101463.37;;;19.11;38.08
46682;BME280;34101;53.430;-2.224;2023-06-14T01:07:15;101464.32;;;19.06;38.64
46682;BME280;34101;53.430;-2.224;2023-06-14T01:10:03;101465.25;;;18.98;38.45
46682;BME280;34101;53.430;-2.224;2023-06-14T01:12:39;101470.36;;;18.95;38.40
46682;BME280;34101;53.430;-2.224;2023-06-14T01:15:13;101468.91;;;18.90;38.66
46682;BME280;34101;53.430;-2.224;2023-06-14T01:17:43;101466.61;;;18.82;39.04
46682;BME280;34101;53.430;-2.224;2023-06-14T01:20:12;101466.20;;;18.76;39.48
46682;BME280;34101;53.430;-2.224;2023-06-14T01:22:50;101465.77;;;18.67;40.24
46682;BME280;34101;53.430;-2.224;2023-06-14T01:25:18;101470.03;;;18.62;40.48
46682;BME280;34101;53.430;-2.224;2023-06-14T01:27:47;101470.63;;;18.55;40.95
46682;BME280;34101;53.430;-2.224;2023-06-14T01:30:15;101469.66;;;18.47;41.10
46682;BME280;34101;53.430;-2.224;2023-06-14T01:32:44;101466.51;;;18.44;41.33
46682;BME280;34101;53.430;-2.224;2023-06-14T01:35:13;101466.39;;;18.39;41.53
46682;BME280;34101;53.430;-2.224;2023-06-14T01:37:41;101466.59;;;18.35;41.48
46682;BME280;34101;53.430;-2.224;2023-06-14T01:40:11;101467.96;;;18.33;41.41
46682;BME280;34101;53.430;-2.224;2023-06-14T01:42:40;101470.31;;;18.32;41.11
46682;BME280;34101;53.430;-2.224;2023-06-14T01:45:09;101466.52;;;18.29;41.11
46682;BME280;34101;53.430;-2.224;2023-06-14T01:47:37;101467.10;;;18.28;40.57
46682;BME280;34101;53.430;-2.224;2023-06-14T01:50:07;101466.48;;;18.22;39.72
46682;BME280;34101;53.430;-2.224;2023-06-14T01:52:36;101469.05;;;18.23;39.47
46682;BME280;34101;53.430;-2.224;2023-06-14T01:55:05;101468.19;;;18.18;39.01
46682;BME280;34101;53.430;-2.224;2023-06-14T01:57:33;101466.65;;;18.14;38.75
46682;BME280;34101;53.430;-2.224;2023-06-14T02:00:01;101468.46;;;18.09;38.82
46682;BME280;34101;53.430;-2.224;2023-06-14T02:02:34;101471.43;;;18.07;38.97
46682;BME280;34101;53.430;-2.224;2023-06-14T02:05:02;101471.54;;;18.02;38.95
46682;BME280;34101;53.430;-2.224;2023-06-14T02:07:30;101474.33;;;17.99;39.16
46682;BME280;34101;53.430;-2.224;2023-06-14T02:09:57;101470.31;;;17.97;39.38
46682;BME280;34101;53.430;-2.224;2023-06-14T02:12:25;101468.91;;;17.90;40.06
46682;BME280;34101;53.430;-2.224;2023-06-14T02:14:53;101467.79;;;17.87;40.42
46682;BME280;34101;53.430;-2.224;2023-06-14T02:17:26;101475.74;;;17.83;40.56
46682;BME280;34101;53.430;-2.224;2023-06-14T02:19:54;101473.02;;;17.78;41.03
46682;BME280;34101;53.430;-2.224;2023-06-14T02:22:21;101479.68;;;17.74;40.86
46682;BME280;34101;53.430;-2.224;2023-06-14T02:24:49;101478.14;;;17.70;41.46
46682;BME280;34101;53.430;-2.224;2023-06-14T02:27:17;101479.96;;;17.65;41.56
46682;BME280;34101;53.430;-2.224;2023-06-14T02:29:45;101480.59;;;17.58;42.05
46682;BME280;34101;53.430;-2.224;2023-06-14T02:32:13;101481.22;;;17.50;42.21
46682;BME280;34101;53.430;-2.224;2023-06-14T02:34:46;101477.24;;;17.47;42.53
46682;BME280;34101;53.430;-2.224;2023-06-14T02:37:13;101473.74;;;17.45;43.06
46682;BME280;34101;53.430;-2.224;2023-06-14T02:39:40;101478.47;;;17.39;43.15
46682;BME280;34101;53.430;-2.224;2023-06-14T02:42:08;101481.02;;;17.34;43.05
46682;BME280;34101;53.430;-2.224;2023-06-14T02:44:35;101483.02;;;17.32;43.04
46682;BME280;34101;53.430;-2.224;2023-06-14T02:47:03;101481.05;;;17.33;43.18
46682;BME280;34101;53.430;-2.224;2023-06-14T02:49:31;101480.10;;;17.28;43.06
46682;BME280;34101;53.430;-2.224;2023-06-14T02:51:59;101477.90;;;17.29;42.77
46682;BME280;34101;53.430;-2.224;2023-06-14T02:54:26;101478.50;;;17.30;42.54
46682;BME280;34101;53.430;-2.224;2023-06-14T02:56:54;101478.38;;;17.28;43.19
46682;BME280;34101;53.430;-2.224;2023-06-14T02:59:21;101481.78;;;17.29;42.80
46682;BME280;34101;53.430;-2.224;2023-06-14T03:01:48;101482.38;;;17.30;42.66
46682;BME280;34101;53.430;-2.224;2023-06-14T03:04:16;101479.53;;;17.30;43.13
46682;BME280;34101;53.430;-2.224;2023-06-14T03:06:44;101479.98;;;17.29;43.52
46682;BME280;34101;53.430;-2.224;2023-06-14T03:09:11;101482.03;;;17.33;44.24
46682;BME280;34101;53.430;-2.224;2023-06-14T03:11:38;101487.14;;;17.28;44.40
46682;BME280;34101;53.430;-2.224;2023-06-14T03:14:06;101490.68;;;17.11;44.65
46682;BME280;34101;53.430;-2.224;2023-06-14T03:16:33;101493.99;;;17.07;44.73
46682;BME280;34101;53.430;-2.224;2023-06-14T03:19:00;101494.23;;;16.96;45.05
46682;BME280;34101;53.430;-2.224;2023-06-14T03:21:28;101494.97;;;16.99;45.04
46682;BME280;34101;53.430;-2.224;2023-06-14T03:23:55;101491.91;;;17.00;45.41
46682;BME280;34101;53.430;-2.224;2023-06-14T03:26:23;101489.71;;;16.93;45.78
46682;BME280;34101;53.430;-2.224;2023-06-14T03:28:50;101489.42;;;16.89;46.03
46682;BME280;34101;53.430;-2.224;2023-06-14T03:31:22;101489.37;;;16.82;46.55
46682;BME280;34101;53.430;-2.224;2023-06-14T03:33:50;101490.09;;;16.77;46.82
46682;BME280;34101;53.430;-2.224;2023-06-14T03:36:18;101488.14;;;16.75;46.66
46682;BME280;34101;53.430;-2.224;2023-06-14T03:38:46;101490.17;;;16.73;46.93
46682;BME280;34101;53.430;-2.224;2023-06-14T03:41:14;101489.51;;;16.69;46.60
46682;BME280;34101;53.430;-2.224;2023-06-14T03:43:41;101489.27;;;16.68;46.81
46682;BME280;34101;53.430;-2.224;2023-06-14T03:46:09;101495.47;;;16.68;46.11
46682;BME280;34101;53.430;-2.224;2023-06-14T03:48:36;101503.71;;;16.76;45.71
46682;BME280;34101;53.430;-2.224;2023-06-14T03:51:03;101498.74;;;16.85;43.67
46682;BME280;34101;53.430;-2.224;2023-06-14T03:53:31;101505.92;;;16.98;42.84
46682;BME280;34101;53.430;-2.224;2023-06-14T03:55:59;101506.57;;;17.06;42.91
46682;BME280;34101;53.430;-2.224;2023-06-14T03:58:26;101503.89;;;17.12;42.54
46682;BME280;34101;53.430;-2.224;2023-06-14T04:00:55;101504.62;;;17.19;42.04
46682;BME280;34101;53.430;-2.224;2023-06-14T04:03:23;101508.09;;;17.22;42.31
46682;BME280;34101;53.430;-2.224;2023-06-14T04:05:50;101505.10;;;17.22;41.84
46682;BME280;34101;53.430;-2.224;2023-06-14T04:08:18;101502.48;;;17.23;41.86
46682;BME280;34101;53.430;-2.224;2023-06-14T04:10:46;101503.79;;;17.24;42.28
46682;BME280;34101;53.430;-2.224;2023-06-14T04:13:14;101506.44;;;17.27;42.30
46682;BME280;34101;53.430;-2.224;2023-06-14T04:15:41;101507.25;;;17.27;42.43
46682;BME280;34101;53.430;-2.224;2023-06-14T04:18:08;101507.31;;;17.28;42.50
46682;BME280;34101;53.430;-2.224;2023-06-14T04:20:36;101504.52;;;17.30;42.52
46682;BME280;34101;53.430;-2.224;2023-06-14T04:23:12;101506.33;;;17.31;42.61
46682;BME280;34101;53.430;-2.224;2023-06-14T04:25:41;101504.90;;;17.34;42.78
46682;BME280;34101;53.430;-2.224;2023-06-14T04:28:08;101505.34;;;17.35;42.81
46682;BME280;34101;53.430;-2.224;2023-06-14T04:30:36;101505.30;;;17.37;42.87
46682;BME280;34101;53.430;-2.224;2023-06-14T04:33:03;101507.61;;;17.35;42.89
46682;BME280;34101;53.430;-2.224;2023-06-14T04:35:30;101505.05;;;17.32;42.87
46682;BME280;34101;53.430;-2.224;2023-06-14T04:37:58;101500.46;;;17.35;42.96
46682;BME280;34101;53.430;-2.224;2023-06-14T04:40:25;101504.49;;;17.34;43.07
46682;BME280;34101;53.430;-2.224;2023-06-14T04:42:53;101510.23;;;17.36;43.29
46682;BME280;34101;53.430;-2.224;2023-06-14T04:45:20;101518.46;;;17.35;43.46
46682;BME280;34101;53.430;-2.224;2023-06-14T04:47:48;101519.03;;;17.38;43.61
46682;BME280;34101;53.430;-2.224;2023-06-14T04:50:15;101518.61;;;17.38;43.73
46682;BME280;34101;53.430;-2.224;2023-06-14T04:52:48;101516.71;;;17.41;43.96
46682;BME280;34101;53.430;-2.224;2023-06-14T04:55:16;101517.27;;;17.42;43.64
46682;BME280;34101;53.430;-2.224;2023-06-14T04:57:44;101515.95;;;17.45;43.42
46682;BME280;34101;53.430;-2.224;2023-06-14T05:00:12;101518.55;;;17.48;43.47
46682;BME280;34101;53.430;-2.224;2023-06-14T05:02:40;101520.38;;;17.48;43.53
46682;BME280;34101;53.430;-2.224;2023-06-14T05:05:08;101523.51;;;17.54;43.53
46682;BME280;34101;53.430;-2.224;2023-06-14T05:07:35;101519.49;;;17.57;43.66
46682;BME280;34101;53.430;-2.224;2023-06-14T05:10:04;101519.97;;;17.62;43.33
46682;BME280;34101;53.430;-2.224;2023-06-14T05:12:31;101519.49;;;17.67;43.80
46682;BME280;34101;53.430;-2.224;2023-06-14T05:14:59;101517.08;;;17.69;43.68
46682;BME280;34101;53.430;-2.224;2023-06-14T05:17:26;101518.47;;;17.73;43.89
46682;BME280;34101;53.430;-2.224;2023-06-14T05:19:54;101516.48;;;17.77;43.90
46682;BME280;34101;53.430;-2.224;2023-06-14T05:22:21;101516.76;;;17.79;44.14
46682;BME280;34101;53.430;-2.224;2023-06-14T05:24:49;101516.86;;;17.79;43.99
46682;BME280;34101;53.430;-2.224;2023-06-14T05:27:17;101518.88;;;17.84;44.18
46682;BME280;34101;53.430;-2.224;2023-06-14T05:29:44;101518.68;;;17.86;44.49
46682;BME280;34101;53.430;-2.224;2023-06-14T05:32:12;101517.90;;;17.90;44.18
46682;BME280;34101;53.430;-2.224;2023-06-14T05:34:40;101520.29;;;17.89;44.23
46682;BME280;34101;53.430;-2.224;2023-06-14T05:37:07;101520.97;;;17.91;44.16
46682;BME280;34101;53.430;-2.224;2023-06-14T05:39:35;101518.56;;;17.94;44.05
46682;BME280;34101;53.430;-2.224;2023-06-14T05:42:02;101516.83;;;17.96;43.93
46682;BME280;34101;53.430;-2.224;2023-06-14T05:44:29;101519.62;;;17.96;44.02
46682;BME280;34101;53.430;-2.224;2023-06-14T05:46:57;101522.40;;;17.99;43.67
46682;BME280;34101;53.430;-2.224;2023-06-14T05:49:24;101521.07;;;18.04;43.67
46682;BME280;34101;53.430;-2.224;2023-06-14T05:51:52;101521.73;;;18.09;44.06
46682;BME280;34101;53.430;-2.224;2023-06-14T05:54:20;101520.47;;;18.13;44.28
46682;BME280;34101;53.430;-2.224;2023-06-14T05:56:47;101521.36;;;18.17;44.44
46682;BME280;34101;53.430;-2.224;2023-06-14T05:59:15;101524.55;;;18.19;44.08
46682;BME280;34101;53.430;-2.224;2023-06-14T06:01:41;101523.33;;;18.23;44.01
46682;BME280;34101;53.430;-2.224;2023-06-14T06:04:09;101520.13;;;18.24;44.39
46682;BME280;34101;53.430;-2.224;2023-06-14T06:06:36;101518.96;;;18.28;44.49
46682;BME280;34101;53.430;-2.224;2023-06-14T06:09:04;101517.20;;;18.29;44.33
46682;BME280;34101;53.430;-2.224;2023-06-14T06:11:31;101520.01;;;18.33;44.66
46682;BME280;34101;53.430;-2.224;2023-06-14T06:13:59;101520.07;;;18.38;44.61
46682;BME280;34101;53.430;-2.224;2023-06-14T06:16:26;101520.62;;;18.42;44.74
46682;BME280;34101;53.430;-2.224;2023-06-14T06:18:54;101520.21;;;18.46;44.75
46682;BME280;34101;53.430;-2.224;2023-06-14T06:21:21;101517.21;;;18.52;44.77
46682;BME280;34101;53.430;-2.224;2023-06-14T06:23:49;101511.84;;;18.57;44.37
46682;BME280;34101;53.430;-2.224;2023-06-14T06:26:16;101509.01;;;18.60;44.40
46682;BME280;34101;53.430;-2.224;2023-06-14T06:28:44;101510.50;;;18.64;44.67
46682;BME280;34101;53.430;-2.224;2023-06-14T06:31:11;101512.21;;;18.72;44.53
46682;BME280;34101;53.430;-2.224;2023-06-14T06:33:39;101513.95;;;18.77;44.45
46682;BME280;34101;53.430;-2.224;2023-06-14T06:36:06;101514.30;;;18.80;44.47
46682;BME280;34101;53.430;-2.224;2023-06-14T06:38:33;101514.48;;;18.84;44.45
46682;BME280;34101;53.430;-2.224;2023-06-14T06:41:01;101510.87;;;18.89;44.51
46682;BME280;34101;53.430;-2.224;2023-06-14T06:43:29;101506.55;;;18.97;44.38
46682;BME280;34101;53.430;-2.224;2023-06-14T06:45:56;101506.54;;;19.06;44.53
46682;BME280;34101;53.430;-2.224;2023-06-14T06:48:29;101512.74;;;19.14;44.19
46682;BME280;34101;53.430;-2.224;2023-06-14T06:50:57;101512.37;;;19.23;43.76
46682;BME280;34101;53.430;-2.224;2023-06-14T06:53:25;101513.99;;;19.31;44.06
46682;BME280;34101;53.430;-2.224;2023-06-14T06:55:52;101516.05;;;19.46;43.96
46682;BME280;34101;53.430;-2.224;2023-06-14T06:58:20;101512.16;;;19.59;43.41
46682;BME280;34101;53.430;-2.224;2023-06-14T07:00:47;101512.26;;;19.71;43.10
46682;BME280;34101;53.430;-2.224;2023-06-14T07:03:19;101513.75;;;19.85;42.75
46682;BME280;34101;53.430;-2.224;2023-06-14T07:05:48;101513.12;;;19.89;42.56
46682;BME280;34101;53.430;-2.224;2023-06-14T07:08:15;101514.87;;;20.03;42.49
46682;BME280;34101;53.430;-2.224;2023-06-14T07:10:43;101515.65;;;20.07;42.18
46682;BME280;34101;53.430;-2.224;2023-06-14T07:13:09;101510.74;;;20.19;42.00
46682;BME280;34101;53.430;-2.224;2023-06-14T07:15:37;101514.98;;;20.33;42.12
46682;BME280;34101;53.430;-2.224;2023-06-14T07:18:04;101514.47;;;20.51;41.79
46682;BME280;34101;53.430;-2.224;2023-06-14T07:20:32;101515.42;;;20.59;41.37
46682;BME280;34101;53.430;-2.224;2023-06-14T07:22:59;101514.41;;;20.78;41.10
46682;BME280;34101;53.430;-2.224;2023-06-14T07:25:27;101516.24;;;20.91;41.04
46682;BME280;34101;53.430;-2.224;2023-06-14T07:27:54;101516.33;;;21.04;40.54
46682;BME280;34101;53.430;-2.224;2023-06-14T07:30:22;101516.53;;;21.30;40.22
46682;BME280;34101;53.430;-2.224;2023-06-14T07:32:49;101511.94;;;21.78;38.97
46682;BME280;34101;53.430;-2.224;2023-06-14T07:35:17;101512.11;;;22.46;36.88
46682;BME280;34101;53.430;-2.224;2023-06-14T07:37:45;101512.42;;;22.92;36.39
46682;BME280;34101;53.430;-2.224;2023-06-14T07:40:13;101512.18;;;23.08;34.99
46682;BME280;34101;53.430;-2.224;2023-06-14T07:42:40;101518.90;;;23.00;35.08
46682;BME280;34101;53.430;-2.224;2023-06-14T07:45:08;101519.76;;;23.24;34.40
46682;BME280;34101;53.430;-2.224;2023-06-14T07:47:36;101518.03;;;23.82;33.39
46682;BME280;34101;53.430;-2.224;2023-06-14T07:50:04;101521.44;;;24.62;32.41
46682;BME280;34101;53.430;-2.224;2023-06-14T07:52:37;101520.17;;;25.19;30.91
46682;BME280;34101;53.430;-2.224;2023-06-14T07:55:05;101518.76;;;25.95;29.63
46682;BME280;34101;53.430;-2.224;2023-06-14T07:57:33;101516.86;;;26.33;28.26
46682;BME280;34101;53.430;-2.224;2023-06-14T08:00:00;101509.21;;;26.66;28.09
46682;BME280;34101;53.430;-2.224;2023-06-14T08:02:28;101509.51;;;26.92;26.79
46682;BME280;34101;53.430;-2.224;2023-06-14T08:04:55;101512.60;;;27.15;26.26
46682;BME280;34101;53.430;-2.224;2023-06-14T08:07:23;101509.45;;;27.13;26.40
46682;BME280;34101;53.430;-2.224;2023-06-14T08:09:52;101507.55;;;27.49;25.73
46682;BME280;34101;53.430;-2.224;2023-06-14T08:12:19;101512.55;;;27.88;24.98
46682;BME280;34101;53.430;-2.224;2023-06-14T08:14:48;101513.36;;;28.05;24.61
46682;BME280;34101;53.430;-2.224;2023-06-14T08:17:15;101520.38;;;28.24;24.54
46682;BME280;34101;53.430;-2.224;2023-06-14T08:19:43;101514.22;;;28.28;24.46
46682;BME280;34101;53.430;-2.224;2023-06-14T08:22:11;101513.34;;;28.37;24.26
46682;BME280;34101;53.430;-2.224;2023-06-14T08:24:39;101520.51;;;28.32;24.29
46682;BME280;34101;53.430;-2.224;2023-06-14T08:27:06;101519.68;;;28.49;24.66
46682;BME280;34101;53.430;-2.224;2023-06-14T08:29:33;101521.05;;;28.76;24.12
46682;BME280;34101;53.430;-2.224;2023-06-14T08:32:01;101523.05;;;29.13;24.27
46682;BME280;34101;53.430;-2.224;2023-06-14T08:34:28;101522.40;;;29.28;23.43
46682;BME280;34101;53.430;-2.224;2023-06-14T08:36:56;101525.46;;;29.07;23.67
46682;BME280;34101;53.430;-2.224;2023-06-14T08:39:24;101523.17;;;29.05;23.75
46682;BME280;34101;53.430;-2.224;2023-06-14T08:41:52;101523.25;;;29.37;23.71
46682;BME280;34101;53.430;-2.224;2023-06-14T08:44:19;101524.80;;;29.81;22.83
46682;BME280;34101;53.430;-2.224;2023-06-14T08:46:48;101524.49;;;30.09;22.77
46682;BME280;34101;53.430;-2.224;2023-06-14T08:49:17;101527.17;;;30.30;22.38
46682;BME280;34101;53.430;-2.224;2023-06-14T08:51:45;101522.99;;;30.62;22.10
46682;BME280;34101;53.430;-2.224;2023-06-14T08:54:14;101523.78;;;30.94;21.79
46682;BME280;34101;53.430;-2.224;2023-06-14T08:56:43;101529.45;;;31.02;21.67
46682;BME280;34101;53.430;-2.224;2023-06-14T08:59:11;101529.24;;;31.07;21.64
46682;BME280;34101;53.430;-2.224;2023-06-14T09:01:39;101525.97;;;31.34;21.38
46682;BME280;34101;53.430;-2.224;2023-06-14T09:04:07;101530.51;;;31.59;20.81
46682;BME280;34101;53.430;-2.224;2023-06-14T09:06:35;101528.58;;;31.70;20.18
46682;BME280;34101;53.430;-2.224;2023-06-14T09:09:03;101524.30;;;31.75;20.73
46682;BME280;34101;53.430;-2.224;2023-06-14T09:11:31;101515.16;;;32.23;19.98
46682;BME280;34101;53.430;-2.224;2023-06-14T09:13:58;101520.90;;;32.02;19.99
46682;BME280;34101;53.430;-2.224;2023-06-14T09:16:26;101518.40;;;32.51;19.97
46682;BME280;34101;53.430;-2.224;2023-06-14T09:18:54;101518.22;;;32.71;19.47
46682;BME280;34101;53.430;-2.224;2023-06-14T09:21:21;101518.30;;;32.81;19.74
46682;BME280;34101;53.430;-2.224;2023-06-14T09:23:49;101518.86;;;33.00;19.11
46682;BME280;34101;53.430;-2.224;2023-06-14T09:26:18;101509.42;;;33.17;19.15
46682;BME280;34101;53.430;-2.224;2023-06-14T09:28:47;101514.94;;;32.89;19.56
46682;BME280;34101;53.430;-2.224;2023-06-14T09:31:17;101516.70;;;33.02;19.42
46682;BME280;34101;53.430;-2.224;2023-06-14T09:33:46;101520.81;;;32.98;19.44
46682;BME280;34101;53.430;-2.224;2023-06-14T09:36:16;101517.91;;;33.37;19.17
46682;BME280;34101;53.430;-2.224;2023-06-14T09:38:53;101517.72;;;33.45;19.28
46682;BME280;34101;53.430;-2.224;2023-06-14T09:41:27;101516.77;;;33.85;19.44
46682;BME280;34101;53.430;-2.224;2023-06-14T09:43:59;101521.11;;;34.16;18.95
46682;BME280;34101;53.430;-2.224;2023-06-14T09:46:28;101520.59;;;34.37;18.06
46682;BME280;34101;53.430;-2.224;2023-06-14T09:48:56;101522.46;;;33.96;17.78
46682;BME280;34101;53.430;-2.224;2023-06-14T09:51:25;101521.40;;;33.86;18.19
46682;BME280;34101;53.430;-2.224;2023-06-14T09:53:53;101524.03;;;33.23;18.71
46682;BME280;34101;53.430;-2.224;2023-06-14T09:56:27;101518.08;;;33.47;18.66
46682;BME280;34101;53.430;-2.224;2023-06-14T09:58:57;101522.57;;;33.54;18.57
46682;BME280;34101;53.430;-2.224;2023-06-14T10:01:25;101526.60;;;33.72;18.30
46682;BME280;34101;53.430;-2.224;2023-06-14T10:03:55;101524.71;;;33.91;18.34
46682;BME280;34101;53.430;-2.224;2023-06-14T10:06:25;101529.14;;;33.41;18.36
46682;BME280;34101;53.430;-2.224;2023-06-14T10:08:56;101528.07;;;33.27;18.35
46682;BME280;34101;53.430;-2.224;2023-06-14T10:11:26;101518.96;;;33.47;18.27
46682;BME280;34101;53.430;-2.224;2023-06-14T10:13:54;101518.09;;;33.66;18.72
46682;BME280;34101;53.430;-2.224;2023-06-14T10:16:28;101522.56;;;33.78;18.96
46682;BME280;34101;53.430;-2.224;2023-06-14T10:19:06;101518.35;;;34.12;18.73
46682;BME280;34101;53.430;-2.224;2023-06-14T10:21:51;101517.46;;;34.18;17.90
46682;BME280;34101;53.430;-2.224;2023-06-14T10:24:31;101513.16;;;33.35;19.13
46682;BME280;34101;53.430;-2.224;2023-06-14T10:26:59;101507.85;;;33.81;18.90
46682;BME280;34101;53.430;-2.224;2023-06-14T10:29:29;101508.66;;;34.33;18.01
46682;BME280;34101;53.430;-2.224;2023-06-14T10:31:58;101514.26;;;34.43;17.56
46682;BME280;34101;53.430;-2.224;2023-06-14T10:34:27;101511.84;;;34.66;17.60
46682;BME280;34101;53.430;-2.224;2023-06-14T10:37:03;101512.33;;;34.53;16.96
46682;BME280;34101;53.430;-2.224;2023-06-14T10:39:32;101511.29;;;33.86;17.67
46682;BME280;34101;53.430;-2.224;2023-06-14T10:42:04;101507.58;;;33.79;17.45
46682;BME280;34101;53.430;-2.224;2023-06-14T10:44:51;101508.10;;;33.54;18.36
46682;BME280;34101;53.430;-2.224;2023-06-14T10:47:25;101511.80;;;33.36;18.36
46682;BME280;34101;53.430;-2.224;2023-06-14T10:49:55;101511.13;;;33.21;18.14
46682;BME280;34101;53.430;-2.224;2023-06-14T10:52:26;101506.70;;;32.91;18.48
46682;BME280;34101;53.430;-2.224;2023-06-14T10:55:00;101506.41;;;32.89;19.27
46682;BME280;34101;53.430;-2.224;2023-06-14T10:57:28;101505.41;;;33.47;18.78
46682;BME280;34101;53.430;-2.224;2023-06-14T10:59:55;101502.80;;;33.66;18.01
46682;BME280;34101;53.430;-2.224;2023-06-14T11:02:53;101510.65;;;33.71;17.99
46682;BME280;34101;53.430;-2.224;2023-06-14T11:05:27;101504.58;;;33.79;17.22
46682;BME280;34101;53.430;-2.224;2023-06-14T11:08:09;101506.92;;;33.33;17.85
46682;BME280;34101;53.430;-2.224;2023-06-14T11:10:40;101499.89;;;33.23;18.68
46682;BME280;34101;53.430;-2.224;2023-06-14T11:13:08;101500.86;;;33.54;18.25
46682;BME280;34101;53.430;-2.224;2023-06-14T11:15:37;101498.99;;;33.63;17.94
46682;BME280;34101;53.430;-2.224;2023-06-14T11:18:06;101499.85;;;33.82;17.62
46682;BME280;34101;53.430;-2.224;2023-06-14T11:20:35;101498.52;;;33.73;17.94
46682;BME280;34101;53.430;-2.224;2023-06-14T11:23:04;101501.30;;;33.30;17.90
46682;BME280;34101;53.430;-2.224;2023-06-14T11:25:32;101493.42;;;32.70;18.34
46682;BME280;34101;53.430;-2.224;2023-06-14T11:27:59;101490.85;;;32.69;18.76
46682;BME280;34101;53.430;-2.224;2023-06-14T11:30:27;101491.05;;;32.77;18.36
46682;BME280;34101;53.430;-2.224;2023-06-14T11:32:55;101484.98;;;32.83;18.02
46682;BME280;34101;53.430;-2.224;2023-06-14T11:35:28;101482.37;;;32.45;18.79
46682;BME280;34101;53.430;-2.224;2023-06-14T11:37:56;101485.61;;;32.60;18.87
46682;BME280;34101;53.430;-2.224;2023-06-14T11:40:25;101485.45;;;33.02;18.56
46682;BME280;34101;53.430;-2.224;2023-06-14T11:42:59;101480.96;;;32.98;18.43
46682;BME280;34101;53.430;-2.224;2023-06-14T11:45:27;101485.54;;;33.14;17.58
46682;BME280;34101;53.430;-2.224;2023-06-14T11:47:55;101482.92;;;32.82;17.68
46682;BME280;34101;53.430;-2.224;2023-06-14T11:50:23;101482.74;;;32.23;17.69
46682;BME280;34101;53.430;-2.224;2023-06-14T11:52:53;101481.05;;;32.69;17.84
46682;BME280;34101;53.430;-2.224;2023-06-14T11:55:21;101484.79;;;32.83;17.39
46682;BME280;34101;53.430;-2.224;2023-06-14T11:57:50;101478.83;;;32.96;17.69
46682;BME280;34101;53.430;-2.224;2023-06-14T12:00:18;101485.70;;;32.57;17.22
46682;BME280;34101;53.430;-2.224;2023-06-14T12:02:53;101489.17;;;32.51;17.01
46682;BME280;34101;53.430;-2.224;2023-06-14T12:05:21;101482.51;;;32.34;17.43
46682;BME280;34101;53.430;-2.224;2023-06-14T12:07:49;101489.50;;;31.58;17.98
46682;BME280;34101;53.430;-2.224;2023-06-14T12:10:17;101490.24;;;31.30;17.53
46682;BME280;34101;53.430;-2.224;2023-06-14T12:12:45;101485.87;;;31.08;17.66
46682;BME280;34101;53.430;-2.224;2023-06-14T12:15:12;101484.17;;;31.24;17.62
46682;BME280;34101;53.430;-2.224;2023-06-14T12:17:40;101491.61;;;31.19;18.39
46682;BME280;34101;53.430;-2.224;2023-06-14T12:20:11;101489.44;;;30.51;18.48
46682;BME280;34101;53.430;-2.224;2023-06-14T12:22:39;101487.95;;;30.39;18.59
46682;BME280;34101;53.430;-2.224;2023-06-14T12:25:07;101490.93;;;30.30;18.80
46682;BME280;34101;53.430;-2.224;2023-06-14T12:27:35;101487.12;;;29.98;19.21
46682;BME280;34101;53.430;-2.224;2023-06-14T12:30:04;101490.71;;;29.87;19.31
46682;BME280;34101;53.430;-2.224;2023-06-14T12:32:36;101482.39;;;29.81;18.95
46682;BME280;34101;53.430;-2.224;2023-06-14T12:35:05;101482.97;;;29.82;19.55
46682;BME280;34101;53.430;-2.224;2023-06-14T12:37:33;101482.35;;;29.95;19.40
46682;BME280;34101;53.430;-2.224;2023-06-14T12:40:00;101479.36;;;29.97;19.48
46682;BME280;34101;53.430;-2.224;2023-06-14T12:42:28;101485.17;;;29.88;20.17
46682;BME280;34101;53.430;-2.224;2023-06-14T12:44:55;101478.00;;;29.96;20.25
46682;BME280;34101;53.430;-2.224;2023-06-14T12:47:28;101482.94;;;30.22;20.80